Terminal Aerodrome Forecast
Issued by NWS Wilmington, OH

Current Version | Previous Version | Graphics & Text | Print | Product List | Glossary On
Versions: 1 2 3 4 5 6 7 8 9 10 11 12 13 14 15 16 17 18 19 20 21 22 23 24 25 26 27
000
FTUS41 KILN 222102 AAC
TAFCVG
TAF AMD
KCVG 222102Z 2221/2324 17013G24KT P6SM VCSH OVC025
     FM222300 18012G23KT P6SM VCSH OVC018
     FM230500 23011G18KT P6SM OVC060
     FM230900 23012KT P6SM OVC080
     FM231300 23012G20KT P6SM OVC035
     FM231600 24015G25KT P6SM OVC025=

USA.gov is the U.S. government's official web portal to all federal, state and local government web resources and services.